Time;durP1;ratioP1;P1;durP2;ratioP2;P2;SDS_P1;SDS_P2;PMS_P1;PMS_P2;Temp;Humidity;BMP_temperature;BMP_pressure;BME280_temperature;BME280_humidity;BME280_pressure;Samples;Min_cycle;Max_cycle;Signal;HPM_P1;HPM_P2
2022/03/14 00:00:47;;;;;;;19.58;10.27;;;;;;;;;;5057625;28;20047;-70
2022/03/14 00:03:14;;;;;;;22.05;10.60;;;;;;;;;;5056638;28;20108;-71
2022/03/14 00:05:39;;;;;;;18.17;10.10;;;;;;;;;;5067247;28;20029;-71
2022/03/14 00:08:06;;;;;;;19.67;10.73;;;;;;;;;;5056528;28;20055;-71
2022/03/14 00:10:32;;;;;;;21.83;10.85;;;;;;;;;;5058597;28;20024;-71
2022/03/14 00:12:58;;;;;;;17.20;10.25;;;;;;;;;;5076410;28;20399;-71
2022/03/14 00:15:27;;;;;;;19.20;10.32;;;;;;;;;;5069346;28;20155;-71
2022/03/14 00:17:53;;;;;;;20.27;10.07;;;;;;;;;;5071724;28;20017;-71
2022/03/14 00:20:18;;;;;;;19.92;10.23;;;;;;;;;;5076127;28;20388;-70
2022/03/14 00:22:45;;;;;;;17.52;10.32;;;;;;;;;;5076562;28;20221;-70
2022/03/14 00:25:10;;;;;;;17.35;9.10;;;;;;;;;;5070300;28;20480;-71
2022/03/14 00:27:35;;;;;;;18.90;10.05;;;;;;;;;;5068650;28;20040;-71
2022/03/14 00:30:01;;;;;;;16.17;9.15;;;;;;;;;;5056116;28;20029;-71
2022/03/14 00:32:26;;;;;;;18.00;10.57;;;;;;;;;;5065865;28;20036;-70
2022/03/14 00:34:51;;;;;;;15.73;9.57;;;;;;;;;;5058750;28;20392;-70
2022/03/14 00:37:17;;;;;;;18.88;10.15;;;;;;;;;;5059239;28;20027;-70
2022/03/14 00:39:42;;;;;;;17.27;9.88;;;;;;;;;;5067218;28;20024;-70
2022/03/14 00:42:07;;;;;;;17.58;10.38;;;;;;;;;;5056894;28;20024;-70
2022/03/14 00:44:32;;;;;;;16.17;9.02;;;;;;;;;;5074934;28;20020;-70
2022/03/14 00:46:58;;;;;;;15.32;8.63;;;;;;;;;;5071216;28;20077;-69
2022/03/14 00:49:23;;;;;;;14.85;8.77;;;;;;;;;;5057245;28;20654;-71
2022/03/14 00:51:48;;;;;;;12.95;7.97;;;;;;;;;;5060389;28;20022;-70
2022/03/14 00:54:13;;;;;;;14.90;8.50;;;;;;;;;;5076077;28;20118;-70
2022/03/14 00:56:39;;;;;;;14.90;8.15;;;;;;;;;;5062914;28;20028;-73
2022/03/14 00:59:04;;;;;;;14.93;8.55;;;;;;;;;;5058398;28;20016;-70
2022/03/14 01:01:29;;;;;;;20.10;9.65;;;;;;;;;;5068509;28;20497;-70
2022/03/14 01:03:54;;;;;;;17.48;9.73;;;;;;;;;;5052865;28;20469;-71
2022/03/14 01:06:20;;;;;;;17.70;9.05;;;;;;;;;;5056324;28;20021;-71
2022/03/14 01:08:45;;;;;;;17.08;9.05;;;;;;;;;;5061211;28;20029;-70
2022/03/14 01:11:10;;;;;;;14.63;8.45;;;;;;;;;;5065640;28;20047;-70
2022/03/14 01:13:36;;;;;;;19.90;9.15;;;;;;;;;;5054541;28;20037;-70
2022/03/14 01:16:03;;;;;;;14.52;8.30;;;;;;;;;;5054915;28;20112;-70
2022/03/14 01:18:28;;;;;;;15.85;8.02;;;;;;;;;;5059227;28;20050;-70
2022/03/14 01:20:53;;;;;;;14.32;8.45;;;;;;;;;;5053344;28;20029;-70
2022/03/14 01:23:18;;;;;;;15.75;8.75;;;;;;;;;;5052181;28;20457;-70
2022/03/14 01:25:45;;;;;;;13.68;8.73;;;;;;;;;;5056824;28;20444;-71
2022/03/14 01:28:11;;;;;;;13.68;8.57;;;;;;;;;;5058643;28;20043;-70
2022/03/14 01:30:37;;;;;;;14.95;8.98;;;;;;;;;;5055984;28;20033;-70
2022/03/14 01:33:03;;;;;;;14.75;8.90;;;;;;;;;;5052081;28;20040;-71
2022/03/14 01:35:28;;;;;;;18.95;8.98;;;;;;;;;;5060810;28;20595;-71
2022/03/14 01:37:54;;;;;;;17.13;9.38;;;;;;;;;;5058423;28;20301;-70
2022/03/14 01:40:19;;;;;;;19.13;9.45;;;;;;;;;;5071415;28;20039;-70
2022/03/14 01:42:44;;;;;;;14.85;9.07;;;;;;;;;;5065865;28;20028;-72
2022/03/14 01:45:10;;;;;;;21.20;9.73;;;;;;;;;;5070139;28;20024;-71
2022/03/14 01:47:36;;;;;;;14.98;9.35;;;;;;;;;;5071888;28;20097;-71
2022/03/14 01:50:01;;;;;;;17.45;9.88;;;;;;;;;;5070772;28;20029;-70
2022/03/14 01:52:27;;;;;;;17.80;9.43;;;;;;;;;;5052233;28;20060;-71
2022/03/14 01:54:52;;;;;;;15.95;8.38;;;;;;;;;;5071751;28;20115;-69
2022/03/14 01:57:17;;;;;;;14.02;8.63;;;;;;;;;;5069433;28;20107;-71
2022/03/14 01:59:43;;;;;;;10.93;6.88;;;;;;;;;;5058345;28;20024;-71
2022/03/14 02:02:08;;;;;;;15.52;7.20;;;;;;;;;;5038542;28;20025;-72
2022/03/14 02:04:33;;;;;;;11.63;6.80;;;;;;;;;;5040739;28;20017;-72
2022/03/14 02:06:58;;;;;;;10.82;6.30;;;;;;;;;;5042044;28;20031;-72
2022/03/14 02:09:23;;;;;;;9.85;5.63;;;;;;;;;;5039563;28;20037;-72
2022/03/14 02:11:50;;;;;;;9.05;5.47;;;;;;;;;;5042546;28;20057;-71
2022/03/14 02:14:15;;;;;;;8.57;4.65;;;;;;;;;;5044602;28;20378;-71
2022/03/14 02:16:40;;;;;;;9.60;5.00;;;;;;;;;;5040613;28;20179;-72
2022/03/14 02:19:06;;;;;;;11.90;5.32;;;;;;;;;;5043468;28;20013;-73
2022/03/14 02:21:31;;;;;;;13.32;5.45;;;;;;;;;;5038340;28;20452;-72
2022/03/14 02:23:57;;;;;;;13.13;5.40;;;;;;;;;;5044580;28;20117;-73
2022/03/14 02:26:22;;;;;;;13.18;5.85;;;;;;;;;;5038345;28;20032;-71
2022/03/14 02:28:47;;;;;;;11.07;6.07;;;;;;;;;;5042784;28;20086;-72
2022/03/14 02:31:12;;;;;;;16.65;5.85;;;;;;;;;;5039158;28;20029;-72
2022/03/14 02:33:38;;;;;;;11.05;6.72;;;;;;;;;;5043144;28;20515;-72
2022/03/14 02:36:03;;;;;;;20.73;8.00;;;;;;;;;;5041872;28;20040;-72
2022/03/14 02:38:28;;;;;;;20.27;8.65;;;;;;;;;;5041330;28;20021;-73
2022/03/14 02:40:53;;;;;;;21.15;8.60;;;;;;;;;;5043181;28;20571;-72
2022/03/14 02:43:22;;;;;;;27.08;9.63;;;;;;;;;;5043691;28;20021;-72
2022/03/14 02:45:47;;;;;;;20.88;8.75;;;;;;;;;;5040806;28;20029;-72
2022/03/14 02:48:13;;;;;;;20.58;9.32;;;;;;;;;;5045725;28;20028;-72
2022/03/14 02:50:41;;;;;;;17.95;10.18;;;;;;;;;;5040864;28;20104;-71
2022/03/14 02:53:06;;;;;;;22.73;9.30;;;;;;;;;;5039835;28;20021;-71
2022/03/14 02:55:31;;;;;;;18.08;9.75;;;;;;;;;;5039884;28;20021;-71
2022/03/14 02:57:59;;;;;;;22.63;10.25;;;;;;;;;;5043365;28;20110;-73
2022/03/14 03:00:24;;;;;;;26.55;11.45;;;;;;;;;;5038220;28;20036;-73
2022/03/14 03:02:49;;;;;;;24.67;11.25;;;;;;;;;;5041599;28;20033;-73
2022/03/14 03:05:14;;;;;;;17.15;10.77;;;;;;;;;;5044620;28;20024;-72
2022/03/14 03:07:39;;;;;;;17.90;11.02;;;;;;;;;;5039921;28;20033;-73
2022/03/14 03:10:06;;;;;;;20.45;11.57;;;;;;;;;;5040849;28;20124;-73
2022/03/14 03:12:32;;;;;;;19.00;11.30;;;;;;;;;;5038743;28;20028;-73
2022/03/14 03:14:58;;;;;;;20.38;11.98;;;;;;;;;;5039587;28;20037;-72
2022/03/14 03:17:23;;;;;;;21.15;12.73;;;;;;;;;;5042853;28;20017;-73
2022/03/14 03:19:48;;;;;;;20.42;11.77;;;;;;;;;;5042823;28;20091;-73
2022/03/14 03:22:13;;;;;;;18.75;11.95;;;;;;;;;;5037025;28;20494;-73
2022/03/14 03:24:39;;;;;;;21.23;11.73;;;;;;;;;;5039816;28;20021;-72
2022/03/14 03:27:04;;;;;;;19.70;12.18;;;;;;;;;;5042500;28;20021;-73
2022/03/14 03:29:29;;;;;;;18.85;11.73;;;;;;;;;;5042435;28;20063;-73
2022/03/14 03:31:54;;;;;;;24.40;12.30;;;;;;;;;;5045785;28;20036;-72
2022/03/14 03:34:20;;;;;;;23.38;12.13;;;;;;;;;;5049374;28;20024;-73
2022/03/14 03:36:45;;;;;;;23.70;12.43;;;;;;;;;;5048676;28;20029;-73
2022/03/14 03:39:10;;;;;;;19.52;11.30;;;;;;;;;;5051829;28;20025;-73
2022/03/14 03:41:36;;;;;;;19.63;11.68;;;;;;;;;;5051768;28;20021;-73
2022/03/14 03:44:01;;;;;;;20.13;11.25;;;;;;;;;;5050514;28;20396;-73
2022/03/14 03:46:27;;;;;;;19.48;11.43;;;;;;;;;;5053718;28;20029;-72
2022/03/14 03:48:52;;;;;;;20.58;12.38;;;;;;;;;;5049402;28;20040;-72
2022/03/14 03:51:17;;;;;;;22.95;11.60;;;;;;;;;;5056617;28;20025;-72
2022/03/14 03:53:42;;;;;;;19.95;11.73;;;;;;;;;;5052939;28;20571;-73
2022/03/14 03:56:07;;;;;;;19.60;11.30;;;;;;;;;;5050361;28;20048;-73
2022/03/14 03:58:33;;;;;;;15.90;10.38;;;;;;;;;;5054299;28;20026;-73
2022/03/14 04:00:58;;;;;;;16.52;10.48;;;;;;;;;;5046430;28;20026;-73
2022/03/14 04:03:23;;;;;;;16.23;10.32;;;;;;;;;;5040910;28;20043;-73
2022/03/14 04:05:48;;;;;;;16.60;9.90;;;;;;;;;;5038456;28;20060;-72
2022/03/14 04:08:13;;;;;;;17.00;10.52;;;;;;;;;;5040956;28;20468;-72
2022/03/14 04:10:39;;;;;;;14.57;9.23;;;;;;;;;;5038115;28;20017;-73
2022/03/14 04:13:06;;;;;;;13.85;8.75;;;;;;;;;;5038108;28;20377;-72
2022/03/14 04:15:31;;;;;;;13.75;9.20;;;;;;;;;;5042552;28;20025;-73
2022/03/14 04:17:57;;;;;;;12.55;8.70;;;;;;;;;;5039300;28;20036;-72
2022/03/14 04:20:23;;;;;;;13.38;8.63;;;;;;;;;;5038446;28;20112;-73
2022/03/14 04:22:48;;;;;;;13.93;8.98;;;;;;;;;;5039998;28;20029;-73
2022/03/14 04:25:14;;;;;;;13.32;8.13;;;;;;;;;;5037311;28;20017;-73
2022/03/14 04:27:40;;;;;;;11.30;7.65;;;;;;;;;;5031566;28;20030;-73
2022/03/14 04:30:05;;;;;;;11.70;7.95;;;;;;;;;;5049641;28;20434;-73
2022/03/14 04:32:30;;;;;;;12.25;7.35;;;;;;;;;;5036058;28;20061;-73
2022/03/14 04:34:56;;;;;;;12.45;7.22;;;;;;;;;;5049219;28;20436;-72
2022/03/14 04:37:21;;;;;;;10.93;7.53;;;;;;;;;;5044980;28;20507;-72
2022/03/14 04:39:46;;;;;;;11.85;7.68;;;;;;;;;;5040738;28;20025;-72
2022/03/14 04:42:12;;;;;;;9.80;6.38;;;;;;;;;;5039967;28;20018;-72
2022/03/14 04:44:37;;;;;;;8.98;6.28;;;;;;;;;;5045189;28;20090;-72
2022/03/14 04:47:02;;;;;;;8.48;6.00;;;;;;;;;;5037809;28;20024;-72
2022/03/14 04:49:28;;;;;;;9.63;6.32;;;;;;;;;;5043252;28;20037;-71
2022/03/14 04:51:55;;;;;;;8.63;5.40;;;;;;;;;;5043465;28;20039;-71
2022/03/14 04:54:20;;;;;;;6.43;4.53;;;;;;;;;;5044908;28;20488;-71
2022/03/14 04:56:45;;;;;;;7.03;5.07;;;;;;;;;;5045884;28;20059;-71
2022/03/14 04:59:11;;;;;;;6.38;3.95;;;;;;;;;;5047009;28;20549;-71
2022/03/14 05:01:36;;;;;;;6.47;4.00;;;;;;;;;;5046563;28;20033;-71
2022/03/14 05:04:01;;;;;;;5.22;3.40;;;;;;;;;;5046880;28;20026;-71
2022/03/14 05:06:26;;;;;;;4.90;3.65;;;;;;;;;;5044372;28;20018;-71
2022/03/14 05:08:51;;;;;;;3.25;2.90;;;;;;;;;;5046097;28;20031;-71
2022/03/14 05:11:17;;;;;;;3.53;2.50;;;;;;;;;;5046779;28;20024;-71
2022/03/14 05:13:43;;;;;;;2.83;2.60;;;;;;;;;;5045570;28;20066;-71
2022/03/14 05:16:08;;;;;;;3.72;2.90;;;;;;;;;;5045957;28;20102;-71
2022/03/14 05:18:34;;;;;;;2.97;2.67;;;;;;;;;;5044963;28;20024;-71
2022/03/14 05:20:59;;;;;;;3.03;2.72;;;;;;;;;;5045343;28;20568;-71
2022/03/14 05:23:25;;;;;;;2.90;2.60;;;;;;;;;;5046988;28;20033;-71
2022/03/14 05:25:50;;;;;;;3.22;2.65;;;;;;;;;;5046134;28;20090;-71
2022/03/14 05:28:16;;;;;;;3.22;2.75;;;;;;;;;;5044923;28;20060;-71
2022/03/14 05:30:41;;;;;;;5.43;2.47;;;;;;;;;;5043381;28;20155;-71
2022/03/14 05:33:07;;;;;;;4.07;2.17;;;;;;;;;;5047862;28;20017;-71
2022/03/14 05:35:32;;;;;;;3.83;2.60;;;;;;;;;;5046596;28;20028;-71
2022/03/14 05:37:57;;;;;;;2.85;2.42;;;;;;;;;;5043257;28;20021;-71
2022/03/14 05:40:22;;;;;;;4.03;2.83;;;;;;;;;;5044090;28;20091;-72
2022/03/14 05:42:48;;;;;;;3.53;2.38;;;;;;;;;;5043965;28;20057;-72
2022/03/14 05:45:13;;;;;;;2.72;2.53;;;;;;;;;;5029959;28;20053;-71
2022/03/14 05:47:39;;;;;;;3.05;2.75;;;;;;;;;;5045053;28;20496;-72
2022/03/14 05:50:04;;;;;;;3.55;3.00;;;;;;;;;;5043344;28;20079;-71
2022/03/14 05:52:29;;;;;;;3.40;2.80;;;;;;;;;;5045256;28;20029;-71
2022/03/14 05:54:55;;;;;;;2.80;2.50;;;;;;;;;;5045049;28;20047;-71
2022/03/14 05:57:21;;;;;;;2.80;2.20;;;;;;;;;;5045196;28;20029;-72
2022/03/14 05:59:46;;;;;;;2.78;2.50;;;;;;;;;;5045168;28;20602;-72
2022/03/14 06:02:11;;;;;;;2.72;2.40;;;;;;;;;;5038298;28;20087;-71
2022/03/14 06:04:39;;;;;;;3.70;2.70;;;;;;;;;;5046574;28;20503;-71
2022/03/14 06:07:05;;;;;;;3.40;2.70;;;;;;;;;;5045244;28;20033;-72
2022/03/14 06:09:30;;;;;;;3.17;2.55;;;;;;;;;;5043259;28;20021;-71
2022/03/14 06:11:56;;;;;;;2.60;2.40;;;;;;;;;;5041952;28;21845;-71
2022/03/14 06:14:21;;;;;;;2.88;2.50;;;;;;;;;;5042487;28;20025;-72
2022/03/14 06:16:46;;;;;;;3.15;2.65;;;;;;;;;;5044465;28;20017;-72
2022/03/14 06:19:11;;;;;;;3.75;2.83;;;;;;;;;;5053285;28;20108;-72
2022/03/14 06:21:39;;;;;;;4.30;2.88;;;;;;;;;;5044498;28;20619;-71
2022/03/14 06:24:04;;;;;;;3.15;2.47;;;;;;;;;;5044788;28;20016;-71
2022/03/14 06:26:29;;;;;;;3.33;2.63;;;;;;;;;;5044403;28;20066;-71
2022/03/14 06:28:55;;;;;;;4.28;3.13;;;;;;;;;;5039451;28;20040;-72
2022/03/14 06:31:21;;;;;;;3.85;3.08;;;;;;;;;;5042886;28;20052;-72
2022/03/14 06:33:46;;;;;;;3.72;3.20;;;;;;;;;;5045370;28;20389;-71
2022/03/14 06:36:11;;;;;;;3.00;2.70;;;;;;;;;;5049047;28;20053;-72
2022/03/14 06:38:36;;;;;;;6.82;3.25;;;;;;;;;;5048097;28;20039;-71
2022/03/14 06:41:02;;;;;;;3.15;2.85;;;;;;;;;;5045417;28;20013;-71
2022/03/14 06:43:28;;;;;;;3.72;2.97;;;;;;;;;;5046722;28;20086;-71
2022/03/14 06:45:53;;;;;;;3.25;2.70;;;;;;;;;;5048397;28;20481;-71
2022/03/14 06:48:19;;;;;;;4.75;3.20;;;;;;;;;;5049845;28;20047;-71
2022/03/14 06:50:44;;;;;;;3.03;2.65;;;;;;;;;;5046610;28;20063;-71
2022/03/14 06:53:09;;;;;;;3.53;2.45;;;;;;;;;;5050948;28;20046;-71
2022/03/14 06:55:34;;;;;;;2.42;2.10;;;;;;;;;;5046793;28;20667;-71
2022/03/14 06:57:59;;;;;;;2.78;2.47;;;;;;;;;;5048316;28;20024;-72
2022/03/14 07:00:26;;;;;;;2.83;2.20;;;;;;;;;;5046695;28;20063;-71
2022/03/14 07:02:51;;;;;;;2.47;2.08;;;;;;;;;;5047727;28;20108;-73
2022/03/14 07:05:21;;;;;;;2.42;2.13;;;;;;;;;;5047822;28;20108;-71
2022/03/14 07:07:49;;;;;;;2.20;2.00;;;;;;;;;;5048457;28;20024;-72
2022/03/14 07:10:16;;;;;;;2.30;2.10;;;;;;;;;;5049092;28;20481;-71
2022/03/14 07:12:50;;;;;;;2.15;1.95;;;;;;;;;;5046304;28;20509;-71
2022/03/14 07:15:21;;;;;;;2.45;1.85;;;;;;;;;;5048906;28;20021;-71
2022/03/14 07:17:46;;;;;;;2.78;2.00;;;;;;;;;;5045074;28;20116;-71
2022/03/14 07:20:11;;;;;;;2.78;2.03;;;;;;;;;;5047615;28;20140;-71
2022/03/14 07:22:50;;;;;;;1.92;1.77;;;;;;;;;;5048231;28;20025;-72
2022/03/14 07:25:17;;;;;;;2.03;1.63;;;;;;;;;;5048177;28;20025;-71
2022/03/14 07:27:43;;;;;;;1.40;1.30;;;;;;;;;;5050049;28;20366;-72
2022/03/14 07:30:08;;;;;;;1.63;0.85;;;;;;;;;;5048663;28;20024;-72
2022/03/14 07:32:33;;;;;;;1.00;0.80;;;;;;;;;;5046436;28;20025;-71
2022/03/14 07:34:59;;;;;;;0.68;0.68;;;;;;;;;;5048957;28;20033;-71
2022/03/14 07:37:24;;;;;;;0.70;0.70;;;;;;;;;;5047144;28;20113;-71
2022/03/14 07:39:49;;;;;;;0.60;0.60;;;;;;;;;;5047683;28;20021;-71
2022/03/14 07:42:15;;;;;;;0.80;0.80;;;;;;;;;;5046412;28;20039;-71
2022/03/14 07:44:41;;;;;;;0.82;0.65;;;;;;;;;;5046891;28;20061;-71
2022/03/14 07:47:10;;;;;;;0.50;0.50;;;;;;;;;;5046748;28;20033;-71
2022/03/14 07:49:36;;;;;;;1.40;0.60;;;;;;;;;;5047293;28;20036;-71
2022/03/14 07:52:01;;;;;;;0.40;0.40;;;;;;;;;;5049426;28;20024;-71
2022/03/14 07:54:26;;;;;;;0.40;0.32;;;;;;;;;;5047321;28;20056;-71
2022/03/14 07:56:51;;;;;;;0.93;0.40;;;;;;;;;;5049368;28;20061;-71
2022/03/14 07:59:16;;;;;;;0.50;0.50;;;;;;;;;;5049765;28;20096;-71
2022/03/14 08:01:41;;;;;;;0.40;0.40;;;;;;;;;;5054866;28;20036;-71
2022/03/14 08:04:07;;;;;;;0.47;0.47;;;;;;;;;;5057805;28;20460;-71
2022/03/14 08:06:35;;;;;;;1.40;0.52;;;;;;;;;;5065236;28;20050;-71
2022/03/14 08:09:01;;;;;;;0.30;0.30;;;;;;;;;;5064429;28;20078;-71
2022/03/14 08:11:28;;;;;;;0.38;0.38;;;;;;;;;;5064373;28;20032;-71
2022/03/14 08:13:54;;;;;;;0.40;0.40;;;;;;;;;;5064771;28;20443;-71
2022/03/14 08:16:20;;;;;;;2.40;0.47;;;;;;;;;;5061315;28;20029;-71
2022/03/14 08:18:45;;;;;;;0.30;0.30;;;;;;;;;;5062102;28;20051;-71
2022/03/14 08:21:10;;;;;;;1.35;0.52;;;;;;;;;;5062666;28;20480;-72
2022/03/14 08:23:36;;;;;;;3.65;0.40;;;;;;;;;;5059553;28;20020;-72
2022/03/14 08:26:02;;;;;;;0.50;0.50;;;;;;;;;;5062354;28;20024;-72
2022/03/14 08:28:27;;;;;;;0.20;0.20;;;;;;;;;;5063838;28;20044;-72
2022/03/14 08:30:53;;;;;;;0.43;0.43;;;;;;;;;;5061001;28;20041;-71
2022/03/14 08:33:20;;;;;;;0.40;0.40;;;;;;;;;;5078677;28;20067;-71
2022/03/14 08:35:46;;;;;;;0.65;0.30;;;;;;;;;;5076593;28;20028;-71
2022/03/14 08:38:13;;;;;;;0.50;0.50;;;;;;;;;;5063179;28;20153;-71
2022/03/14 08:40:38;;;;;;;0.35;0.20;;;;;;;;;;5063231;28;20059;-71
2022/03/14 08:43:03;;;;;;;0.30;0.30;;;;;;;;;;5064154;28;20064;-71
2022/03/14 08:45:28;;;;;;;0.35;0.35;;;;;;;;;;5061598;28;20020;-72
2022/03/14 08:47:54;;;;;;;0.60;0.50;;;;;;;;;;5062292;28;20067;-72
2022/03/14 08:50:19;;;;;;;0.30;0.30;;;;;;;;;;5063058;28;20019;-71
2022/03/14 08:52:47;;;;;;;0.40;0.40;;;;;;;;;;5061808;28;20483;-72
2022/03/14 08:55:12;;;;;;;0.40;0.40;;;;;;;;;;5061613;28;20028;-71
2022/03/14 08:57:37;;;;;;;0.60;0.60;;;;;;;;;;5060534;28;20020;-72
2022/03/14 09:00:04;;;;;;;0.65;0.60;;;;;;;;;;5060972;28;20108;-71
2022/03/14 09:02:29;;;;;;;0.60;0.60;;;;;;;;;;5059217;28;20032;-71
2022/03/14 09:04:54;;;;;;;0.68;0.68;;;;;;;;;;5061811;28;20439;-71
2022/03/14 09:07:25;;;;;;;0.60;0.60;;;;;;;;;;5062372;28;20032;-71
2022/03/14 09:09:51;;;;;;;0.80;0.80;;;;;;;;;;5061781;28;20028;-71
2022/03/14 09:12:16;;;;;;;5.07;1.08;;;;;;;;;;5063783;28;20025;-71
2022/03/14 09:14:41;;;;;;;0.90;0.90;;;;;;;;;;5060840;28;20023;-71
2022/03/14 09:17:07;;;;;;;1.92;0.88;;;;;;;;;;5060570;28;20046;-71
2022/03/14 09:19:34;;;;;;;0.90;0.90;;;;;;;;;;5061319;28;20020;-71
2022/03/14 09:22:00;;;;;;;0.80;0.80;;;;;;;;;;5060488;28;20033;-72
2022/03/14 09:24:26;;;;;;;1.00;0.95;;;;;;;;;;5062116;28;20036;-71
2022/03/14 09:26:52;;;;;;;2.15;0.90;;;;;;;;;;5061763;28;20025;-71
2022/03/14 09:29:17;;;;;;;1.00;1.00;;;;;;;;;;5063343;28;20063;-72
2022/03/14 09:31:42;;;;;;;1.15;1.05;;;;;;;;;;5060785;28;20044;-71
2022/03/14 09:34:08;;;;;;;0.90;0.90;;;;;;;;;;5063804;28;20024;-71
2022/03/14 09:36:33;;;;;;;1.00;1.00;;;;;;;;;;5062408;28;20028;-71
2022/03/14 09:38:58;;;;;;;1.08;1.08;;;;;;;;;;5063755;28;20048;-72
2022/03/14 09:41:23;;;;;;;4.05;1.58;;;;;;;;;;5064949;28;20017;-71
2022/03/14 09:43:51;;;;;;;2.80;1.10;;;;;;;;;;5064299;28;20093;-72
2022/03/14 09:46:16;;;;;;;4.68;1.00;;;;;;;;;;5061583;28;20733;-71
2022/03/14 09:48:44;;;;;;;1.00;1.00;;;;;;;;;;5060054;28;20017;-72
2022/03/14 09:51:09;;;;;;;1.00;1.00;;;;;;;;;;5060298;28;20017;-71
2022/03/14 09:53:35;;;;;;;1.20;1.10;;;;;;;;;;5059108;28;20575;-71
2022/03/14 09:56:00;;;;;;;2.78;1.30;;;;;;;;;;5061866;28;20400;-71
2022/03/14 09:58:26;;;;;;;1.13;1.10;;;;;;;;;;5059105;28;20429;-71
2022/03/14 10:00:51;;;;;;;1.70;1.60;;;;;;;;;;5058610;28;20037;-71
2022/03/14 10:03:16;;;;;;;1.60;1.50;;;;;;;;;;5066673;28;20024;-71
2022/03/14 10:05:42;;;;;;;1.35;1.10;;;;;;;;;;5062898;28;20013;-71
2022/03/14 10:08:07;;;;;;;1.30;1.20;;;;;;;;;;5062274;28;20423;-70
2022/03/14 10:10:33;;;;;;;1.00;1.00;;;;;;;;;;5061669;28;20523;-70
2022/03/14 10:12:58;;;;;;;1.40;1.30;;;;;;;;;;5065124;28;20620;-70
2022/03/14 10:15:25;;;;;;;1.40;1.30;;;;;;;;;;5064625;28;20023;-69
2022/03/14 10:17:51;;;;;;;1.48;1.38;;;;;;;;;;5066863;28;20024;-71
2022/03/14 10:20:16;;;;;;;1.40;1.30;;;;;;;;;;5059225;28;20027;-71
2022/03/14 10:22:42;;;;;;;1.50;1.40;;;;;;;;;;5061488;28;20480;-70
2022/03/14 10:25:18;;;;;;;1.20;1.20;;;;;;;;;;5065715;28;20020;-71
2022/03/14 10:27:45;;;;;;;1.20;1.17;;;;;;;;;;5061217;28;20017;-72
2022/03/14 10:30:23;;;;;;;2.22;1.40;;;;;;;;;;5063728;28;20028;-71
2022/03/14 10:32:49;;;;;;;1.92;1.67;;;;;;;;;;5066781;28;20083;-70
2022/03/14 10:35:17;;;;;;;3.38;1.40;;;;;;;;;;5063024;28;20048;-71
2022/03/14 10:37:46;;;;;;;1.55;1.45;;;;;;;;;;5065049;28;20025;-71
2022/03/14 10:40:12;;;;;;;1.40;1.30;;;;;;;;;;5065046;28;20080;-71
2022/03/14 10:42:41;;;;;;;1.63;1.52;;;;;;;;;;5062180;28;20017;-69
2022/03/14 10:45:18;;;;;;;1.88;1.67;;;;;;;;;;5064106;28;20111;-71
2022/03/14 10:47:44;;;;;;;1.95;1.80;;;;;;;;;;5059207;28;20024;-70
2022/03/14 10:50:09;;;;;;;2.22;1.83;;;;;;;;;;5060166;28;20017;-70
2022/03/14 10:52:34;;;;;;;1.75;1.65;;;;;;;;;;5061511;28;20044;-72
2022/03/14 10:55:00;;;;;;;6.13;2.08;;;;;;;;;;5061289;28;20112;-70
2022/03/14 10:57:30;;;;;;;2.28;1.80;;;;;;;;;;5066685;28;20520;-70
2022/03/14 10:59:56;;;;;;;1.77;1.67;;;;;;;;;;5060200;28;20024;-72
2022/03/14 11:02:24;;;;;;;1.42;1.33;;;;;;;;;;5065947;28;20524;-73
2022/03/14 11:04:50;;;;;;;2.58;1.67;;;;;;;;;;5060999;28;20535;-71
2022/03/14 11:07:15;;;;;;;1.70;1.60;;;;;;;;;;5062614;28;20044;-72
2022/03/14 11:09:48;;;;;;;1.63;1.52;;;;;;;;;;5061717;28;20032;-70
2022/03/14 11:12:17;;;;;;;1.55;1.45;;;;;;;;;;5062504;28;20023;-73
2022/03/14 11:14:42;;;;;;;1.70;1.60;;;;;;;;;;5060271;28;20042;-73
2022/03/14 11:17:15;;;;;;;7.93;1.50;;;;;;;;;;5060385;28;20621;-70
2022/03/14 11:19:40;;;;;;;1.48;1.30;;;;;;;;;;5063008;28;20039;-73
2022/03/14 11:22:06;;;;;;;1.40;1.30;;;;;;;;;;5066535;28;20040;-71
2022/03/14 11:24:31;;;;;;;1.50;1.40;;;;;;;;;;5067960;28;20485;-71
2022/03/14 11:26:57;;;;;;;1.35;1.33;;;;;;;;;;5060962;28;20077;-73
2022/03/14 11:29:22;;;;;;;1.85;1.75;;;;;;;;;;5061050;28;20021;-71
2022/03/14 11:31:48;;;;;;;1.60;1.50;;;;;;;;;;5062654;28;20033;-73
2022/03/14 11:34:14;;;;;;;1.77;1.67;;;;;;;;;;5061119;28;20031;-71
2022/03/14 11:36:39;;;;;;;2.20;1.50;;;;;;;;;;5066662;28;20020;-71
2022/03/14 11:39:04;;;;;;;1.63;1.52;;;;;;;;;;5063307;28;20043;-71
2022/03/14 11:41:29;;;;;;;1.40;1.30;;;;;;;;;;5064927;28;20134;-70
2022/03/14 11:43:55;;;;;;;1.27;1.23;;;;;;;;;;5062762;28;20028;-71
2022/03/14 11:46:20;;;;;;;1.60;1.50;;;;;;;;;;5062463;28;20482;-71
2022/03/14 11:48:45;;;;;;;1.55;1.20;;;;;;;;;;5065715;28;20493;-71
2022/03/14 11:51:11;;;;;;;2.05;1.65;;;;;;;;;;5063219;28;20021;-72
2022/03/14 11:53:36;;;;;;;1.70;1.60;;;;;;;;;;5064423;28;20086;-71
2022/03/14 11:56:08;;;;;;;1.83;1.60;;;;;;;;;;5059962;28;20055;-71
2022/03/14 11:58:37;;;;;;;2.75;1.70;;;;;;;;;;5062874;28;20515;-71
2022/03/14 12:01:12;;;;;;;4.93;1.90;;;;;;;;;;5054027;28;20492;-73
2022/03/14 12:03:37;;;;;;;1.92;1.83;;;;;;;;;;5046218;28;20024;-73
2022/03/14 12:06:03;;;;;;;2.30;2.10;;;;;;;;;;5045461;28;20029;-71
2022/03/14 12:08:32;;;;;;;1.80;1.70;;;;;;;;;;5046284;28;20033;-70
2022/03/14 12:11:35;;;;;;;2.25;1.73;;;;;;;;;;5047403;28;20114;-72
2022/03/14 12:14:00;;;;;;;2.33;2.10;;;;;;;;;;5022714;28;20039;-73
2022/03/14 12:16:38;;;;;;;3.67;1.80;;;;;;;;;;5046966;28;20032;-71
2022/03/14 12:19:24;;;;;;;4.00;1.60;;;;;;;;;;5062938;28;20025;-70
2022/03/14 12:21:52;;;;;;;1.88;1.77;;;;;;;;;;5048684;28;20520;-70
2022/03/14 12:24:21;;;;;;;1.70;1.60;;;;;;;;;;5043661;28;20029;-68
2022/03/14 12:26:46;;;;;;;6.18;1.80;;;;;;;;;;5049732;28;20025;-72
2022/03/14 12:29:31;;;;;;;2.08;1.98;;;;;;;;;;5046515;28;20374;-70
2022/03/14 12:32:15;;;;;;;2.42;1.92;;;;;;;;;;5048053;28;20041;-70
2022/03/14 12:34:41;;;;;;;1.88;1.77;;;;;;;;;;5045168;28;20029;-73
2022/03/14 12:37:22;;;;;;;12.73;2.53;;;;;;;;;;5046413;28;20028;-73
2022/03/14 12:39:47;;;;;;;1.88;1.77;;;;;;;;;;5048206;28;20171;-72
2022/03/14 12:42:19;;;;;;;2.30;2.10;;;;;;;;;;5043787;28;20107;-72
2022/03/14 12:44:44;;;;;;;2.58;2.00;;;;;;;;;;5048654;28;20065;-71
2022/03/14 12:47:13;;;;;;;1.90;1.80;;;;;;;;;;5043380;28;20033;-71
2022/03/14 12:49:38;;;;;;;1.90;1.80;;;;;;;;;;5043278;28;20378;-72
2022/03/14 12:52:12;;;;;;;3.00;2.00;;;;;;;;;;5043922;28;20032;-72
2022/03/14 12:54:38;;;;;;;2.28;2.00;;;;;;;;;;5048807;28;20280;-71
2022/03/14 12:57:04;;;;;;;2.03;1.85;;;;;;;;;;5046144;28;20397;-71
2022/03/14 12:59:30;;;;;;;2.50;2.30;;;;;;;;;;5048632;28;20021;-72
2022/03/14 13:01:55;;;;;;;3.42;2.70;;;;;;;;;;5060019;28;20082;-71
2022/03/14 13:04:22;;;;;;;2.42;2.20;;;;;;;;;;5061354;28;20350;-70
2022/03/14 13:06:49;;;;;;;2.47;2.28;;;;;;;;;;5065304;28;20020;-72
2022/03/14 13:09:16;;;;;;;2.47;2.28;;;;;;;;;;5063316;28;20032;-72
2022/03/14 13:11:41;;;;;;;7.82;2.60;;;;;;;;;;5062163;28;20020;-71
2022/03/14 13:14:11;;;;;;;2.35;2.15;;;;;;;;;;5063334;28;20028;-70
2022/03/14 13:16:38;;;;;;;2.15;2.05;;;;;;;;;;5079465;28;20024;-71
2022/03/14 13:19:03;;;;;;;2.25;2.03;;;;;;;;;;5063989;28;20025;-70
2022/03/14 13:21:29;;;;;;;2.38;2.17;;;;;;;;;;5063861;28;20385;-71
2022/03/14 13:23:55;;;;;;;4.53;1.90;;;;;;;;;;5067049;28;20036;-69
2022/03/14 13:26:20;;;;;;;3.08;2.30;;;;;;;;;;5066204;28;20099;-71
2022/03/14 13:28:45;;;;;;;2.72;2.53;;;;;;;;;;5064983;28;20025;-72
2022/03/14 13:31:11;;;;;;;2.60;2.40;;;;;;;;;;5060107;28;20412;-71
2022/03/14 13:33:37;;;;;;;3.70;2.60;;;;;;;;;;5065152;28;20083;-70
2022/03/14 13:36:03;;;;;;;2.60;2.38;;;;;;;;;;5065865;28;20257;-71
2022/03/14 13:38:35;;;;;;;2.42;2.22;;;;;;;;;;5065133;28;20078;-72
2022/03/14 13:41:01;;;;;;;3.22;2.58;;;;;;;;;;5066418;28;20108;-70
2022/03/14 13:43:26;;;;;;;4.00;2.30;;;;;;;;;;5065194;28;20581;-71
2022/03/14 13:45:51;;;;;;;2.38;2.20;;;;;;;;;;5065232;28;20051;-72
2022/03/14 13:48:21;;;;;;;2.60;2.40;;;;;;;;;;5067926;28;20052;-71
2022/03/14 13:50:46;;;;;;;2.50;2.30;;;;;;;;;;5065182;28;20556;-71
2022/03/14 13:53:21;;;;;;;2.30;2.10;;;;;;;;;;5065109;28;20025;-71
2022/03/14 13:55:56;;;;;;;2.28;2.10;;;;;;;;;;5063895;28;20112;-71
2022/03/14 13:58:25;;;;;;;2.50;2.30;;;;;;;;;;5065253;28;20008;-70
2022/03/14 14:00:51;;;;;;;2.40;2.20;;;;;;;;;;5057179;28;20128;-71
2022/03/14 14:03:20;;;;;;;2.83;2.15;;;;;;;;;;5047159;28;20035;-71
2022/03/14 14:05:45;;;;;;;2.53;2.33;;;;;;;;;;5045422;28;20028;-72
2022/03/14 14:08:10;;;;;;;2.27;2.17;;;;;;;;;;5047325;28;20408;-71
2022/03/14 14:10:35;;;;;;;2.78;2.38;;;;;;;;;;5048503;28;20028;-71
2022/03/14 14:13:02;;;;;;;2.47;2.27;;;;;;;;;;5048494;28;20016;-70
2022/03/14 14:15:39;;;;;;;2.30;2.20;;;;;;;;;;5046609;28;20273;-70
2022/03/14 14:18:12;;;;;;;2.65;2.00;;;;;;;;;;5047785;28;20035;-70
2022/03/14 14:20:37;;;;;;;2.45;2.25;;;;;;;;;;5047541;28;20034;-70
2022/03/14 14:23:05;;;;;;;2.50;2.30;;;;;;;;;;5046191;28;20025;-70
2022/03/14 14:25:31;;;;;;;3.67;2.10;;;;;;;;;;5043470;28;20052;-70
2022/03/14 14:27:56;;;;;;;2.50;2.30;;;;;;;;;;5043761;28;20064;-70
2022/03/14 14:30:31;;;;;;;3.43;2.53;;;;;;;;;;5046385;28;20051;-70
2022/03/14 14:32:58;;;;;;;2.78;2.50;;;;;;;;;;5045857;28;20265;-71